createdAt,value
2019-03-10T00:02:07.526Z,58.56
2019-03-10T00:04:41.125Z,58.21
2019-03-10T00:07:14.569Z,58.06
2019-03-10T00:09:47.983Z,58.35
2019-03-10T00:12:21.522Z,58.21
2019-03-10T00:14:54.992Z,58.25
2019-03-10T00:17:28.416Z,58.15
2019-03-10T00:20:01.827Z,58.19
2019-03-10T00:22:35.269Z,58.52
2019-03-10T00:25:09.934Z,58.90
2019-03-10T00:27:43.379Z,59.22
2019-03-10T00:30:17.848Z,58.88
2019-03-10T00:32:51.276Z,58.64
2019-03-10T00:35:24.751Z,58.55
2019-03-10T00:37:58.495Z,58.89
2019-03-10T00:40:57.547Z,58.67
2019-03-10T00:43:48.972Z,58.60
2019-03-10T00:46:37.662Z,58.94
2019-03-10T00:49:30.598Z,58.92
2019-03-10T00:52:18.949Z,58.65
2019-03-10T00:54:52.290Z,58.53
2019-03-10T00:57:25.718Z,58.63
2019-03-10T01:00:00.712Z,58.86
2019-03-10T01:02:34.205Z,58.58
2019-03-10T01:05:07.875Z,58.90
2019-03-10T01:07:41.308Z,58.73
2019-03-10T01:10:14.774Z,59.12
2019-03-10T01:12:48.205Z,58.58
2019-03-10T01:15:21.648Z,58.87
2019-03-10T01:17:55.165Z,58.98
2019-03-10T01:20:28.564Z,58.91
2019-03-10T01:23:01.993Z,59.16
2019-03-10T01:25:35.401Z,58.92
2019-03-10T01:28:08.834Z,58.73
2019-03-10T01:30:48.040Z,59.16
2019-03-10T01:33:50.394Z,59.47
2019-03-10T01:36:22.698Z,58.97
2019-03-10T01:38:56.063Z,58.71
2019-03-10T01:41:29.399Z,58.36
2019-03-10T01:44:02.828Z,58.30
2019-03-10T01:46:36.260Z,59.00
2019-03-10T01:49:09.984Z,58.97
2019-03-10T01:51:43.310Z,58.47
2019-03-10T01:54:16.745Z,58.49
2019-03-10T01:56:50.174Z,58.40
2019-03-10T01:59:23.532Z,57.77
2019-03-10T02:01:56.866Z,58.12
2019-03-10T02:04:30.225Z,58.50
2019-03-10T02:07:03.584Z,57.79
2019-03-10T02:09:37.024Z,57.91
2019-03-10T02:12:10.386Z,58.02
2019-03-10T02:14:43.728Z,57.84
2019-03-10T02:17:17.124Z,58.14
2019-03-10T02:19:50.603Z,57.92
2019-03-10T02:22:23.971Z,58.04
2019-03-10T02:24:57.338Z,57.88
2019-03-10T02:27:30.696Z,58.05
2019-03-10T02:30:06.954Z,57.96
2019-03-10T02:32:40.313Z,58.02
2019-03-10T02:35:13.762Z,58.29
2019-03-10T02:37:47.214Z,58.23
2019-03-10T02:40:20.563Z,58.16
2019-03-10T02:42:54.006Z,58.29
2019-03-10T02:45:27.402Z,58.32
2019-03-10T02:48:00.827Z,58.52
2019-03-10T02:50:34.195Z,58.33
2019-03-10T02:53:07.617Z,58.34
2019-03-10T02:55:41.012Z,58.13
2019-03-10T02:58:14.381Z,58.18
2019-03-10T03:00:47.759Z,58.15
2019-03-10T03:03:21.120Z,58.28
2019-03-10T03:05:54.426Z,58.21
2019-03-10T03:08:27.802Z,58.25
2019-03-10T03:11:01.234Z,58.00
2019-03-10T03:13:34.667Z,58.38
2019-03-10T03:16:07.969Z,57.79
2019-03-10T03:18:41.306Z,58.54
2019-03-10T03:21:14.618Z,58.33
2019-03-10T03:23:48.018Z,58.52
2019-03-10T03:26:21.372Z,58.35
2019-03-10T03:28:54.788Z,58.53
2019-03-10T03:31:28.241Z,58.30
2019-03-10T03:34:01.604Z,58.45
2019-03-10T03:36:36.219Z,58.30
2019-03-10T03:39:17.932Z,58.40
2019-03-10T03:41:51.305Z,58.28
2019-03-10T03:44:24.678Z,58.31
2019-03-10T03:46:58.073Z,58.47
2019-03-10T03:49:31.463Z,58.36
2019-03-10T03:52:04.871Z,58.25
2019-03-10T03:54:38.232Z,58.06
2019-03-10T03:57:11.638Z,58.04
2019-03-10T03:59:44.991Z,58.03
2019-03-10T04:02:20.131Z,57.75
2019-03-10T04:04:53.540Z,57.68
2019-03-10T04:07:26.984Z,57.68
2019-03-10T04:10:00.473Z,57.56
2019-03-10T04:12:33.905Z,57.53
2019-03-10T04:15:07.305Z,57.43
2019-03-10T04:17:40.739Z,57.42
2019-03-10T04:20:14.116Z,57.51
2019-03-10T04:22:47.498Z,57.73
2019-03-10T04:25:20.870Z,57.37
2019-03-10T04:27:54.324Z,57.57
2019-03-10T04:30:27.694Z,57.62
2019-03-10T04:33:01.015Z,57.50
2019-03-10T04:35:34.415Z,57.51
2019-03-10T04:38:07.734Z,57.61
2019-03-10T04:40:41.078Z,57.67
2019-03-10T04:43:14.426Z,57.64
2019-03-10T04:45:47.788Z,57.83
2019-03-10T04:48:21.108Z,57.91
2019-03-10T04:50:54.479Z,57.96
2019-03-10T04:53:28.774Z,57.94
2019-03-10T04:56:06.529Z,57.79
2019-03-10T04:58:41.587Z,57.74
2019-03-10T05:01:14.932Z,57.57
2019-03-10T05:03:48.247Z,57.74
2019-03-10T05:06:21.654Z,57.86
2019-03-10T05:08:54.974Z,57.74
2019-03-10T05:11:28.329Z,57.90
2019-03-10T05:14:01.640Z,57.91
2019-03-10T05:16:35.124Z,58.04
2019-03-10T05:19:08.487Z,58.24
2019-03-10T05:21:41.907Z,58.33
2019-03-10T05:24:15.288Z,58.29
2019-03-10T05:26:48.658Z,58.21
2019-03-10T05:29:22.073Z,58.19
2019-03-10T05:31:55.496Z,58.20
2019-03-10T05:34:28.871Z,58.06
2019-03-10T05:37:02.187Z,57.88
2019-03-10T05:39:35.589Z,57.74
2019-03-10T05:42:09.012Z,58.19
2019-03-10T05:44:42.445Z,58.19
2019-03-10T05:47:15.820Z,57.93
2019-03-10T05:49:49.175Z,57.92
2019-03-10T05:52:22.515Z,58.04
2019-03-10T05:54:55.862Z,58.04
2019-03-10T05:57:29.173Z,58.02
2019-03-10T06:00:02.640Z,58.02
2019-03-10T06:02:35.950Z,58.01
2019-03-10T06:05:09.384Z,58.11
2019-03-10T06:07:42.721Z,58.14
2019-03-10T06:10:16.066Z,58.21
2019-03-10T06:12:49.387Z,58.16
2019-03-10T06:15:22.752Z,58.08
2019-03-10T06:17:56.078Z,58.09
2019-03-10T06:20:29.443Z,58.18
2019-03-10T06:23:02.820Z,58.21
2019-03-10T06:25:36.162Z,58.13
2019-03-10T06:28:09.497Z,58.07
2019-03-10T06:30:42.921Z,57.96
2019-03-10T06:33:16.263Z,58.11
2019-03-10T06:35:49.605Z,58.11
2019-03-10T06:38:22.978Z,58.13
2019-03-10T06:40:56.405Z,58.00
2019-03-10T06:43:29.770Z,57.99
2019-03-10T06:46:03.182Z,58.01
2019-03-10T06:48:36.493Z,57.90
2019-03-10T06:51:09.949Z,57.92
2019-03-10T06:53:43.280Z,57.75
2019-03-10T06:56:16.610Z,57.89
2019-03-10T06:58:49.972Z,57.71
2019-03-10T07:01:23.314Z,57.68
2019-03-10T07:03:56.634Z,57.80
2019-03-10T07:06:30.134Z,57.92
2019-03-10T07:09:04.850Z,57.78
2019-03-10T07:11:38.183Z,57.41
2019-03-10T07:14:11.559Z,57.32
2019-03-10T07:16:44.927Z,57.37
2019-03-10T07:19:19.963Z,57.61
2019-03-10T07:21:53.334Z,57.65
2019-03-10T07:24:26.669Z,56.83
2019-03-10T07:27:02.177Z,56.46
2019-03-10T07:29:39.643Z,55.33
2019-03-10T07:32:14.623Z,54.72
2019-03-10T07:34:49.575Z,54.22
2019-03-10T07:37:24.629Z,51.64
2019-03-10T07:40:05.389Z,49.42
2019-03-10T07:42:40.448Z,47.14
2019-03-10T07:45:21.503Z,45.29
2019-03-10T07:47:56.674Z,42.01
2019-03-10T07:50:31.851Z,43.62
2019-03-10T07:53:18.638Z,45.57
2019-03-10T07:56:05.579Z,47.19
2019-03-10T07:58:52.466Z,48.65
2019-03-10T08:01:30.312Z,48.62
2019-03-10T08:04:13.861Z,48.95
2019-03-10T08:06:51.751Z,49.78
2019-03-10T08:09:39.063Z,50.41
2019-03-10T08:12:14.051Z,50.50
2019-03-10T08:14:49.241Z,51.29
2019-03-10T08:17:24.673Z,51.67
2019-03-10T08:20:05.350Z,51.23
2019-03-10T08:22:40.509Z,51.19
2019-03-10T08:25:15.730Z,51.82
2019-03-10T08:28:06.739Z,51.69
2019-03-10T08:30:57.711Z,52.18
2019-03-10T08:33:38.456Z,51.94
2019-03-10T08:36:13.976Z,51.80
2019-03-10T08:39:03.915Z,51.32
2019-03-10T08:41:41.675Z,51.15
2019-03-10T08:44:19.600Z,51.17
2019-03-10T08:46:57.309Z,50.49
2019-03-10T08:49:50.242Z,51.29
2019-03-10T08:52:25.310Z,51.53
2019-03-10T08:55:16.384Z,49.72
2019-03-10T08:57:51.375Z,51.30
2019-03-10T09:00:26.350Z,51.60
2019-03-10T09:03:17.471Z,51.61
2019-03-10T09:06:00.956Z,51.44
2019-03-10T09:08:38.545Z,51.03
2019-03-10T09:11:19.672Z,51.27
2019-03-10T09:13:57.427Z,50.61
2019-03-10T09:16:47.533Z,51.14
2019-03-10T09:19:22.581Z,50.41
2019-03-10T09:22:00.152Z,50.48
2019-03-10T09:24:52.172Z,50.80
2019-03-10T09:27:43.508Z,51.19
2019-03-10T09:30:18.488Z,51.17
2019-03-10T09:33:08.512Z,50.96
2019-03-10T09:35:43.540Z,50.64
2019-03-10T09:38:21.352Z,50.62
2019-03-10T09:41:05.343Z,51.17
2019-03-10T09:43:40.322Z,50.73
2019-03-10T09:49:30.068Z,51.46
2019-03-10T09:52:05.176Z,51.10
2019-03-10T09:54:49.410Z,50.91
2019-03-10T09:57:26.915Z,50.59
2019-03-10T10:00:10.851Z,50.93
2019-03-10T10:02:56.478Z,50.38
2019-03-10T10:05:31.526Z,50.42
2019-03-10T10:08:06.529Z,50.67
2019-03-10T10:10:44.488Z,50.37
2019-03-10T10:13:22.471Z,49.37
2019-03-10T10:16:00.055Z,49.84
2019-03-10T10:18:37.656Z,49.50
2019-03-10T10:21:15.558Z,48.04
2019-03-10T10:23:59.604Z,48.35
2019-03-10T10:26:52.860Z,48.57
2019-03-10T10:29:30.635Z,48.21
2019-03-10T10:32:11.672Z,48.57
2019-03-10T10:34:49.723Z,49.14
2019-03-10T10:37:24.682Z,49.22
2019-03-10T10:39:59.727Z,49.79
2019-03-10T10:42:43.837Z,49.69
2019-03-10T10:45:18.962Z,49.62
2019-03-10T10:48:10.574Z,49.25
2019-03-10T10:50:51.157Z,49.82
2019-03-10T10:53:26.150Z,50.12
2019-03-10T10:56:07.022Z,50.73
2019-03-10T10:58:44.732Z,50.44
2019-03-10T11:01:25.840Z,50.43
2019-03-10T11:04:09.658Z,50.00
2019-03-10T11:06:47.308Z,49.64
2019-03-10T11:09:22.301Z,50.44
2019-03-10T11:11:57.295Z,50.80
2019-03-10T11:14:44.305Z,51.25
2019-03-10T11:17:31.490Z,50.55
2019-03-10T11:20:09.623Z,51.29
2019-03-10T11:22:59.584Z,51.74
2019-03-10T11:25:37.670Z,52.26
2019-03-10T11:31:30.462Z,52.93
2019-03-10T11:34:05.531Z,53.16
2019-03-10T11:36:56.542Z,53.00
2019-03-10T11:39:47.526Z,53.27
2019-03-10T11:42:34.451Z,53.15
2019-03-10T11:45:27.686Z,53.32
2019-03-10T11:48:02.716Z,53.93
2019-03-10T11:50:53.611Z,54.29
2019-03-10T11:53:44.885Z,54.80
2019-03-10T11:56:25.829Z,55.31
2019-03-10T11:59:03.528Z,54.98
2019-03-10T12:01:41.138Z,53.81
2019-03-10T12:04:28.104Z,53.81
2019-03-10T12:07:03.060Z,53.99
2019-03-10T12:09:36.465Z,54.37
2019-03-10T12:12:09.788Z,53.82
2019-03-10T12:14:43.130Z,53.19
2019-03-10T12:17:16.514Z,53.46
2019-03-10T12:19:49.859Z,54.10
2019-03-10T12:22:23.195Z,54.26
2019-03-10T12:24:56.546Z,54.89
2019-03-10T12:27:29.866Z,55.47
2019-03-10T12:30:03.753Z,53.83
2019-03-10T12:32:37.066Z,52.62
2019-03-10T12:35:10.395Z,53.35
2019-03-10T12:37:43.705Z,53.92
2019-03-10T12:40:17.052Z,53.70
2019-03-10T12:42:50.390Z,53.78
2019-03-10T12:45:23.758Z,53.38
2019-03-10T12:47:57.155Z,54.26
2019-03-10T12:50:30.497Z,54.75
2019-03-10T12:53:03.876Z,53.30
2019-03-10T12:55:37.242Z,54.73
2019-03-10T12:58:10.546Z,55.04
2019-03-10T13:00:43.978Z,54.73
2019-03-10T13:03:17.354Z,54.40
2019-03-10T13:05:50.769Z,55.05
2019-03-10T13:08:24.154Z,54.91
2019-03-10T13:10:57.494Z,55.10
2019-03-10T13:13:30.797Z,55.32
2019-03-10T13:16:04.184Z,54.67
2019-03-10T13:18:37.501Z,54.79
2019-03-10T13:21:10.923Z,55.16
2019-03-10T13:23:44.244Z,55.21
2019-03-10T13:26:17.593Z,55.58
2019-03-10T13:28:50.908Z,55.23
2019-03-10T13:31:24.252Z,55.64
2019-03-10T13:33:57.566Z,55.61
2019-03-10T13:36:30.993Z,55.59
2019-03-10T13:39:06.525Z,55.93
2019-03-10T13:41:40.404Z,56.01
2019-03-10T13:44:13.715Z,55.81
2019-03-10T13:46:47.060Z,56.21
2019-03-10T13:49:20.383Z,56.16
2019-03-10T13:51:53.877Z,56.24
2019-03-10T13:54:27.192Z,56.33
2019-03-10T13:57:00.669Z,56.38
2019-03-10T13:59:34.087Z,56.53
2019-03-10T14:02:07.896Z,56.56
2019-03-10T14:04:41.292Z,56.89
2019-03-10T14:07:14.695Z,57.12
2019-03-10T14:09:48.146Z,57.15
2019-03-10T14:12:21.483Z,57.05
2019-03-10T14:14:54.810Z,57.49
2019-03-10T14:17:28.167Z,57.79
2019-03-10T14:20:01.473Z,58.18
2019-03-10T14:22:34.821Z,58.28
2019-03-10T14:25:10.541Z,58.34
2019-03-10T14:27:44.236Z,58.73
2019-03-10T14:30:18.893Z,58.75
2019-03-10T14:32:52.229Z,58.98
2019-03-10T14:35:25.615Z,59.20
2019-03-10T14:37:58.943Z,58.82
2019-03-10T14:40:32.414Z,59.51
2019-03-10T14:43:05.930Z,59.53
2019-03-10T14:45:39.376Z,59.80
2019-03-10T14:48:12.840Z,59.17
2019-03-10T14:50:46.268Z,59.15
2019-03-10T14:53:19.683Z,59.47
2019-03-10T14:55:53.027Z,59.58
2019-03-10T14:58:27.476Z,60.23
2019-03-10T15:01:01.201Z,60.34
2019-03-10T15:03:34.542Z,60.54
2019-03-10T15:06:07.920Z,60.76
2019-03-10T15:08:41.264Z,60.98
2019-03-10T15:11:15.064Z,61.06
2019-03-10T15:13:48.514Z,61.24
2019-03-10T15:16:22.027Z,61.24
2019-03-10T15:18:55.335Z,61.49
2019-03-10T15:21:28.721Z,61.63
2019-03-10T15:24:02.005Z,61.48
2019-03-10T15:26:45.144Z,61.73
2019-03-10T15:29:10.547Z,61.91
2019-03-10T15:31:43.923Z,62.02
2019-03-10T15:34:18.742Z,61.89
2019-03-10T15:36:52.091Z,61.59
2019-03-10T15:39:27.329Z,62.12
2019-03-10T15:42:00.516Z,61.97
2019-03-10T15:44:33.917Z,62.13
2019-03-10T15:47:07.303Z,61.94
2019-03-10T15:49:40.618Z,62.29
2019-03-10T15:52:14.095Z,62.36
2019-03-10T15:54:47.387Z,62.54
2019-03-10T15:57:20.792Z,62.55
2019-03-10T15:59:54.182Z,62.65
2019-03-10T16:02:27.607Z,62.83
2019-03-10T16:05:00.939Z,62.85
2019-03-10T16:07:34.292Z,62.72
2019-03-10T16:10:10.838Z,63.12
2019-03-10T16:12:44.260Z,63.04
2019-03-10T16:15:19.975Z,63.04
2019-03-10T16:17:53.463Z,63.24
2019-03-10T16:20:26.779Z,63.24
2019-03-10T16:23:00.201Z,63.43
2019-03-10T16:25:33.554Z,63.67
2019-03-10T16:28:06.914Z,63.81
2019-03-10T16:30:40.437Z,63.85
2019-03-10T16:33:13.867Z,63.85
2019-03-10T16:35:47.246Z,63.67
2019-03-10T16:38:20.590Z,63.91
2019-03-10T16:40:53.929Z,63.90
2019-03-10T16:43:27.486Z,64.12
2019-03-10T16:46:00.846Z,64.00
2019-03-10T16:48:34.286Z,64.21
2019-03-10T16:51:07.636Z,64.11
2019-03-10T16:53:41.955Z,64.23
2019-03-10T16:56:15.308Z,64.39
2019-03-10T16:58:48.662Z,64.27
2019-03-10T17:01:22.125Z,64.17
2019-03-10T17:03:55.542Z,64.51
2019-03-10T17:06:28.917Z,64.50
2019-03-10T17:09:04.632Z,64.63
2019-03-10T17:11:38.660Z,64.71
2019-03-10T17:14:12.183Z,64.87
2019-03-10T17:16:45.496Z,64.80
2019-03-10T17:19:18.886Z,65.40
2019-03-10T17:21:52.201Z,65.62
2019-03-10T17:24:25.553Z,65.55
2019-03-10T17:26:58.889Z,65.60
2019-03-10T17:29:32.232Z,65.00
2019-03-10T17:32:05.622Z,64.74
2019-03-10T17:34:38.967Z,64.49
2019-03-10T17:37:12.304Z,64.39
2019-03-10T17:39:45.662Z,64.25
2019-03-10T17:42:18.994Z,64.14
2019-03-10T17:44:52.375Z,64.13
2019-03-10T17:47:26.923Z,63.98
2019-03-10T17:50:00.478Z,63.99
2019-03-10T17:52:33.805Z,64.11
2019-03-10T17:55:15.711Z,64.36
2019-03-10T17:57:49.058Z,64.42
2019-03-10T18:00:26.979Z,64.87
2019-03-10T18:03:00.392Z,64.82
2019-03-10T18:05:33.717Z,64.58
2019-03-10T18:08:07.128Z,64.73
2019-03-10T18:10:40.432Z,64.80
2019-03-10T18:13:13.797Z,64.68
2019-03-10T18:15:47.100Z,64.78
2019-03-10T18:18:20.460Z,64.81
2019-03-10T18:20:53.785Z,64.75
2019-03-10T18:23:27.131Z,64.75
2019-03-10T18:26:00.514Z,64.68
2019-03-10T18:28:33.870Z,64.77
2019-03-10T18:31:07.213Z,64.76
2019-03-10T18:33:40.550Z,64.82
2019-03-10T18:36:13.861Z,64.81
2019-03-10T18:38:47.229Z,64.98
2019-03-10T18:41:20.543Z,65.03
2019-03-10T18:43:53.910Z,65.04
2019-03-10T18:46:27.231Z,65.05
2019-03-10T18:49:00.599Z,65.01
2019-03-10T18:51:33.920Z,65.27
2019-03-10T18:54:07.311Z,65.16
2019-03-10T18:56:40.636Z,65.17
2019-03-10T18:59:13.979Z,65.28
2019-03-10T19:01:47.314Z,65.37
2019-03-10T19:04:20.648Z,65.83
2019-03-10T19:06:53.958Z,65.75
2019-03-10T19:09:27.357Z,65.78
2019-03-10T19:12:00.780Z,65.73
2019-03-10T19:14:34.202Z,65.77
2019-03-10T19:17:07.684Z,65.70
2019-03-10T19:19:41.097Z,65.66
2019-03-10T19:22:14.416Z,65.61
2019-03-10T19:24:47.837Z,65.71
2019-03-10T19:27:29.724Z,65.79
2019-03-10T19:29:56.224Z,65.86
2019-03-10T19:32:29.573Z,65.98
2019-03-10T19:35:03.191Z,65.83
2019-03-10T19:37:36.587Z,65.80
2019-03-10T19:40:15.857Z,65.73
2019-03-10T19:42:49.315Z,66.04
2019-03-10T19:45:25.785Z,66.05
2019-03-10T19:47:59.106Z,65.93
2019-03-10T19:50:32.548Z,65.92
2019-03-10T19:53:05.868Z,65.90
2019-03-10T19:55:39.215Z,65.84
2019-03-10T19:58:12.532Z,65.89
2019-03-10T20:00:45.924Z,65.84
2019-03-10T20:03:19.378Z,65.75
2019-03-10T20:05:52.859Z,65.61
2019-03-10T20:08:26.171Z,65.93
2019-03-10T20:10:59.757Z,65.78
2019-03-10T20:13:33.087Z,65.81
2019-03-10T20:16:06.572Z,65.76
2019-03-10T20:18:39.913Z,65.54
2019-03-10T20:21:13.383Z,65.44
2019-03-10T20:23:46.805Z,65.61
2019-03-10T20:26:20.230Z,65.64
2019-03-10T20:28:53.599Z,65.77
2019-03-10T20:31:26.982Z,65.52
2019-03-10T20:34:00.348Z,65.76
2019-03-10T20:36:33.819Z,65.76
2019-03-10T20:39:07.509Z,65.50
2019-03-10T20:41:40.981Z,65.78
2019-03-10T20:44:14.301Z,65.86
2019-03-10T20:46:47.694Z,65.94
2019-03-10T20:49:21.076Z,66.05
2019-03-10T20:51:54.496Z,65.73
2019-03-10T20:54:27.838Z,65.78
2019-03-10T20:57:01.194Z,66.12
2019-03-10T20:59:34.732Z,66.47
2019-03-10T21:02:08.351Z,65.87
2019-03-10T21:04:41.850Z,65.74
2019-03-10T21:07:15.392Z,65.98
2019-03-10T21:09:48.873Z,65.73
2019-03-10T21:12:22.267Z,65.91
2019-03-10T21:14:55.807Z,66.02
2019-03-10T21:17:29.384Z,66.23
2019-03-10T21:20:02.946Z,66.25
2019-03-10T21:22:36.365Z,66.43
2019-03-10T21:25:12.455Z,66.27
2019-03-10T21:27:45.938Z,66.33
2019-03-10T21:30:27.608Z,66.57
2019-03-10T21:33:01.064Z,66.28
2019-03-10T21:35:34.463Z,66.06
2019-03-10T21:38:07.779Z,65.98
2019-03-10T21:40:41.134Z,66.09
2019-03-10T21:43:14.696Z,66.10
2019-03-10T21:45:48.191Z,66.13
2019-03-10T21:48:21.519Z,66.17
2019-03-10T21:50:54.905Z,65.60
2019-03-10T21:53:28.228Z,66.00
2019-03-10T21:56:01.581Z,66.09
2019-03-10T21:58:35.069Z,66.07
2019-03-10T22:01:08.483Z,65.99
2019-03-10T22:03:41.834Z,65.90
2019-03-10T22:06:15.173Z,66.08
2019-03-10T22:08:48.531Z,66.00
2019-03-10T22:11:21.907Z,65.77
2019-03-10T22:13:55.297Z,65.84
2019-03-10T22:16:28.714Z,66.18
2019-03-10T22:19:02.118Z,66.10
2019-03-10T22:21:35.609Z,66.00
2019-03-10T22:24:08.985Z,65.82
2019-03-10T22:26:42.329Z,65.83
2019-03-10T22:29:15.655Z,65.80
2019-03-10T22:31:49.051Z,65.80
2019-03-10T22:34:22.395Z,66.08
2019-03-10T22:36:55.805Z,65.80
2019-03-10T22:39:29.175Z,65.91
2019-03-10T22:42:02.591Z,65.93
2019-03-10T22:44:35.926Z,65.99
2019-03-10T22:47:09.356Z,66.10
2019-03-10T22:49:42.705Z,66.07
2019-03-10T22:52:16.071Z,65.91
2019-03-10T22:54:49.400Z,65.92
2019-03-10T22:57:22.807Z,65.95
2019-03-10T22:59:56.212Z,65.92
2019-03-10T23:02:29.556Z,65.94
2019-03-10T23:05:02.879Z,66.05
2019-03-10T23:07:36.299Z,65.65
2019-03-10T23:10:12.074Z,66.00
2019-03-10T23:12:45.492Z,65.82
2019-03-10T23:15:18.818Z,65.74
2019-03-10T23:17:52.235Z,65.69
2019-03-10T23:20:25.611Z,66.18
2019-03-10T23:22:58.965Z,65.91
2019-03-10T23:25:32.359Z,65.92
2019-03-10T23:28:05.995Z,65.73
2019-03-10T23:30:39.321Z,65.90
2019-03-10T23:33:12.827Z,65.74
2019-03-10T23:35:46.303Z,65.77
2019-03-10T23:38:19.646Z,65.62
2019-03-10T23:40:53.034Z,65.62
2019-03-10T23:43:26.372Z,65.95
2019-03-10T23:45:59.715Z,65.78
2019-03-10T23:48:33.060Z,65.64
2019-03-10T23:51:06.420Z,65.85
2019-03-10T23:53:39.756Z,65.86
2019-03-10T23:56:13.129Z,64.67
2019-03-10T23:58:46.447Z,65.67
